sensor_id;sensor_type;location;lat;lon;timestamp;temperature;humidity
5683;DHT22;2864;49.220;8.654;2022-08-19T00:01:57;20.80;95.90
5683;DHT22;2864;49.220;8.654;2022-08-19T00:04:27;20.80;96.10
5683;DHT22;2864;49.220;8.654;2022-08-19T00:06:54;20.70;96.20
5683;DHT22;2864;49.220;8.654;2022-08-19T00:09:21;20.80;96.40
5683;DHT22;2864;49.220;8.654;2022-08-19T00:11:47;20.80;96.60
5683;DHT22;2864;49.220;8.654;2022-08-19T00:14:15;20.70;96.70
5683;DHT22;2864;49.220;8.654;2022-08-19T00:16:44;20.80;96.90
5683;DHT22;2864;49.220;8.654;2022-08-19T00:19:10;20.80;97.10
5683;DHT22;2864;49.220;8.654;2022-08-19T00:21:36;20.80;97.10
5683;DHT22;2864;49.220;8.654;2022-08-19T00:24:09;20.80;97.10
5683;DHT22;2864;49.220;8.654;2022-08-19T00:26:36;20.70;97.10
5683;DHT22;2864;49.220;8.654;2022-08-19T00:29:03;20.70;97.20
5683;DHT22;2864;49.220;8.654;2022-08-19T00:31:29;20.70;97.40
5683;DHT22;2864;49.220;8.654;2022-08-19T00:33:56;20.70;97.60
5683;DHT22;2864;49.220;8.654;2022-08-19T00:36:22;20.70;97.80
5683;DHT22;2864;49.220;8.654;2022-08-19T00:38:48;20.70;97.90
5683;DHT22;2864;49.220;8.654;2022-08-19T00:41:16;20.70;98.00
5683;DHT22;2864;49.220;8.654;2022-08-19T00:44:00;20.60;98.30
5683;DHT22;2864;49.220;8.654;2022-08-19T00:46:27;20.60;98.40
5683;DHT22;2864;49.220;8.654;2022-08-19T00:48:53;20.60;98.40
5683;DHT22;2864;49.220;8.654;2022-08-19T00:51:20;20.60;98.40
5683;DHT22;2864;49.220;8.654;2022-08-19T00:53:45;20.60;98.40
5683;DHT22;2864;49.220;8.654;2022-08-19T00:56:11;20.60;98.50
5683;DHT22;2864;49.220;8.654;2022-08-19T00:58:37;20.60;98.50
5683;DHT22;2864;49.220;8.654;2022-08-19T01:01:04;20.60;98.50
5683;DHT22;2864;49.220;8.654;2022-08-19T01:03:30;20.60;98.40
5683;DHT22;2864;49.220;8.654;2022-08-19T01:05:56;20.60;98.40
5683;DHT22;2864;49.220;8.654;2022-08-19T01:08:22;20.60;98.30
5683;DHT22;2864;49.220;8.654;2022-08-19T01:10:56;20.70;98.50
5683;DHT22;2864;49.220;8.654;2022-08-19T01:13:25;20.60;98.20
5683;DHT22;2864;49.220;8.654;2022-08-19T01:15:58;20.60;98.30
5683;DHT22;2864;49.220;8.654;2022-08-19T01:18:26;20.60;98.40
5683;DHT22;2864;49.220;8.654;2022-08-19T01:20:54;20.60;98.50
5683;DHT22;2864;49.220;8.654;2022-08-19T01:23:20;20.50;98.60
5683;DHT22;2864;49.220;8.654;2022-08-19T01:25:50;20.50;98.60
5683;DHT22;2864;49.220;8.654;2022-08-19T01:28:23;20.50;98.60
5683;DHT22;2864;49.220;8.654;2022-08-19T01:30:51;20.50;98.80
5683;DHT22;2864;49.220;8.654;2022-08-19T01:33:17;20.40;98.80
5683;DHT22;2864;49.220;8.654;2022-08-19T01:35:44;20.40;99.00
5683;DHT22;2864;49.220;8.654;2022-08-19T01:38:23;20.40;99.00
5683;DHT22;2864;49.220;8.654;2022-08-19T01:40:49;20.40;99.10
5683;DHT22;2864;49.220;8.654;2022-08-19T01:43:15;20.50;99.40
5683;DHT22;2864;49.220;8.654;2022-08-19T01:45:41;20.50;99.20
5683;DHT22;2864;49.220;8.654;2022-08-19T01:48:08;20.50;99.20
5683;DHT22;2864;49.220;8.654;2022-08-19T01:50:35;20.50;99.30
5683;DHT22;2864;49.220;8.654;2022-08-19T01:53:02;20.50;99.40
5683;DHT22;2864;49.220;8.654;2022-08-19T01:55:29;20.50;99.60
5683;DHT22;2864;49.220;8.654;2022-08-19T01:57:58;20.50;99.50
5683;DHT22;2864;49.220;8.654;2022-08-19T02:00:26;20.50;99.30
5683;DHT22;2864;49.220;8.654;2022-08-19T02:02:53;20.40;99.40
5683;DHT22;2864;49.220;8.654;2022-08-19T02:05:19;20.40;99.50
5683;DHT22;2864;49.220;8.654;2022-08-19T02:07:47;20.40;99.70
5683;DHT22;2864;49.220;8.654;2022-08-19T02:10:16;20.40;99.90
5683;DHT22;2864;49.220;8.654;2022-08-19T02:12:43;20.40;99.90
5683;DHT22;2864;49.220;8.654;2022-08-19T02:15:10;20.30;99.90
5683;DHT22;2864;49.220;8.654;2022-08-19T02:17:36;20.90;99.90
5683;DHT22;2864;49.220;8.654;2022-08-19T02:20:05;20.50;99.90
5683;DHT22;2864;49.220;8.654;2022-08-19T02:22:32;20.30;99.90
5683;DHT22;2864;49.220;8.654;2022-08-19T02:24:58;20.40;99.90
5683;DHT22;2864;49.220;8.654;2022-08-19T02:27:24;20.30;99.90
5683;DHT22;2864;49.220;8.654;2022-08-19T02:29:51;20.40;99.90
5683;DHT22;2864;49.220;8.654;2022-08-19T02:32:18;20.40;99.90
5683;DHT22;2864;49.220;8.654;2022-08-19T02:34:45;20.30;99.90
5683;DHT22;2864;49.220;8.654;2022-08-19T02:37:11;21.40;99.90
5683;DHT22;2864;49.220;8.654;2022-08-19T02:39:57;20.40;99.90
5683;DHT22;2864;49.220;8.654;2022-08-19T02:42:23;20.40;99.90
5683;DHT22;2864;49.220;8.654;2022-08-19T02:44:49;20.50;99.90
5683;DHT22;2864;49.220;8.654;2022-08-19T02:47:15;20.40;99.90
5683;DHT22;2864;49.220;8.654;2022-08-19T02:49:41;20.40;99.90
5683;DHT22;2864;49.220;8.654;2022-08-19T02:52:07;20.40;99.90
5683;DHT22;2864;49.220;8.654;2022-08-19T02:54:32;20.30;99.90
5683;DHT22;2864;49.220;8.654;2022-08-19T02:56:58;20.20;99.90
5683;DHT22;2864;49.220;8.654;2022-08-19T02:59:23;20.30;99.90
5683;DHT22;2864;49.220;8.654;2022-08-19T03:01:49;20.20;99.90
5683;DHT22;2864;49.220;8.654;2022-08-19T03:04:16;20.20;99.90
5683;DHT22;2864;49.220;8.654;2022-08-19T03:06:43;20.20;99.90
5683;DHT22;2864;49.220;8.654;2022-08-19T03:09:09;20.10;99.90
5683;DHT22;2864;49.220;8.654;2022-08-19T03:11:35;20.10;99.90
5683;DHT22;2864;49.220;8.654;2022-08-19T03:14:02;20.10;99.90
5683;DHT22;2864;49.220;8.654;2022-08-19T03:16:29;20.10;99.90
5683;DHT22;2864;49.220;8.654;2022-08-19T03:18:56;20.10;99.90
5683;DHT22;2864;49.220;8.654;2022-08-19T03:21:26;20.00;99.90
5683;DHT22;2864;49.220;8.654;2022-08-19T03:23:58;20.00;99.90
5683;DHT22;2864;49.220;8.654;2022-08-19T03:26:24;20.00;99.90
5683;DHT22;2864;49.220;8.654;2022-08-19T03:28:49;20.00;99.90
5683;DHT22;2864;49.220;8.654;2022-08-19T03:31:18;19.90;99.90
5683;DHT22;2864;49.220;8.654;2022-08-19T03:33:45;19.90;99.90
5683;DHT22;2864;49.220;8.654;2022-08-19T03:36:16;19.90;99.90
5683;DHT22;2864;49.220;8.654;2022-08-19T03:38:44;19.90;99.90
5683;DHT22;2864;49.220;8.654;2022-08-19T03:41:13;19.90;99.90
5683;DHT22;2864;49.220;8.654;2022-08-19T03:43:41;19.80;99.90
5683;DHT22;2864;49.220;8.654;2022-08-19T03:46:10;19.70;99.90
5683;DHT22;2864;49.220;8.654;2022-08-19T03:48:36;19.70;99.90
5683;DHT22;2864;49.220;8.654;2022-08-19T03:51:02;19.70;99.90
5683;DHT22;2864;49.220;8.654;2022-08-19T03:53:29;19.70;99.90
5683;DHT22;2864;49.220;8.654;2022-08-19T03:55:55;19.70;99.90
5683;DHT22;2864;49.220;8.654;2022-08-19T03:58:22;19.80;99.90
5683;DHT22;2864;49.220;8.654;2022-08-19T04:00:48;19.60;99.90
5683;DHT22;2864;49.220;8.654;2022-08-19T04:03:14;19.60;99.90
5683;DHT22;2864;49.220;8.654;2022-08-19T04:05:39;19.50;99.90
5683;DHT22;2864;49.220;8.654;2022-08-19T04:08:05;19.60;99.90
5683;DHT22;2864;49.220;8.654;2022-08-19T04:10:35;19.50;99.90
5683;DHT22;2864;49.220;8.654;2022-08-19T04:13:00;19.50;99.90
5683;DHT22;2864;49.220;8.654;2022-08-19T04:15:26;19.50;99.90
5683;DHT22;2864;49.220;8.654;2022-08-19T04:17:54;19.40;99.90
5683;DHT22;2864;49.220;8.654;2022-08-19T04:20:20;20.10;99.90
5683;DHT22;2864;49.220;8.654;2022-08-19T04:22:45;19.30;99.90
5683;DHT22;2864;49.220;8.654;2022-08-19T04:25:11;19.30;99.90
5683;DHT22;2864;49.220;8.654;2022-08-19T04:27:37;19.30;99.90
5683;DHT22;2864;49.220;8.654;2022-08-19T04:30:03;19.30;99.90
5683;DHT22;2864;49.220;8.654;2022-08-19T04:32:29;19.20;99.90
5683;DHT22;2864;49.220;8.654;2022-08-19T04:34:57;19.20;99.90
5683;DHT22;2864;49.220;8.654;2022-08-19T04:37:24;19.20;99.90
5683;DHT22;2864;49.220;8.654;2022-08-19T04:39:51;19.20;99.90
5683;DHT22;2864;49.220;8.654;2022-08-19T04:42:36;19.60;99.90
5683;DHT22;2864;49.220;8.654;2022-08-19T04:45:13;19.20;99.90
5683;DHT22;2864;49.220;8.654;2022-08-19T04:47:40;19.20;99.90
5683;DHT22;2864;49.220;8.654;2022-08-19T04:50:07;19.30;99.90
5683;DHT22;2864;49.220;8.654;2022-08-19T04:52:34;19.30;99.90
5683;DHT22;2864;49.220;8.654;2022-08-19T04:54:59;19.40;99.90
5683;DHT22;2864;49.220;8.654;2022-08-19T04:57:25;19.50;99.90
5683;DHT22;2864;49.220;8.654;2022-08-19T04:59:56;19.50;99.90
5683;DHT22;2864;49.220;8.654;2022-08-19T05:02:21;19.60;99.90
5683;DHT22;2864;49.220;8.654;2022-08-19T05:04:50;19.70;99.90
5683;DHT22;2864;49.220;8.654;2022-08-19T05:07:15;19.60;99.90
5683;DHT22;2864;49.220;8.654;2022-08-19T05:09:41;19.70;99.90
5683;DHT22;2864;49.220;8.654;2022-08-19T05:12:08;19.80;99.90
5683;DHT22;2864;49.220;8.654;2022-08-19T05:14:33;20.20;99.90
5683;DHT22;2864;49.220;8.654;2022-08-19T05:17:00;19.90;99.90
5683;DHT22;2864;49.220;8.654;2022-08-19T05:19:26;19.90;99.90
5683;DHT22;2864;49.220;8.654;2022-08-19T05:22:10;20.00;99.90
5683;DHT22;2864;49.220;8.654;2022-08-19T05:25:09;20.00;99.90
5683;DHT22;2864;49.220;8.654;2022-08-19T05:27:35;20.00;99.90
5683;DHT22;2864;49.220;8.654;2022-08-19T05:30:01;20.10;99.90
5683;DHT22;2864;49.220;8.654;2022-08-19T05:32:27;20.10;99.90
5683;DHT22;2864;49.220;8.654;2022-08-19T05:34:53;20.20;99.90
5683;DHT22;2864;49.220;8.654;2022-08-19T05:37:18;20.20;99.90
5683;DHT22;2864;49.220;8.654;2022-08-19T05:39:44;20.20;99.90
5683;DHT22;2864;49.220;8.654;2022-08-19T05:42:11;20.50;99.90
5683;DHT22;2864;49.220;8.654;2022-08-19T05:44:39;20.40;99.90
5683;DHT22;2864;49.220;8.654;2022-08-19T05:47:07;20.40;99.90
5683;DHT22;2864;49.220;8.654;2022-08-19T05:49:34;20.50;99.90
5683;DHT22;2864;49.220;8.654;2022-08-19T05:52:03;20.50;99.90
5683;DHT22;2864;49.220;8.654;2022-08-19T05:54:29;20.60;99.90
5683;DHT22;2864;49.220;8.654;2022-08-19T05:56:55;20.60;99.90
5683;DHT22;2864;49.220;8.654;2022-08-19T05:59:21;21.20;99.90
5683;DHT22;2864;49.220;8.654;2022-08-19T06:01:48;20.80;99.90
5683;DHT22;2864;49.220;8.654;2022-08-19T06:04:18;20.80;99.90
5683;DHT22;2864;49.220;8.654;2022-08-19T06:06:45;21.80;99.90
5683;DHT22;2864;49.220;8.654;2022-08-19T06:09:11;20.90;99.90
5683;DHT22;2864;49.220;8.654;2022-08-19T06:11:43;21.00;99.90
5683;DHT22;2864;49.220;8.654;2022-08-19T06:14:21;21.00;99.90
5683;DHT22;2864;49.220;8.654;2022-08-19T06:16:48;21.10;99.90
5683;DHT22;2864;49.220;8.654;2022-08-19T06:19:16;21.20;99.90
5683;DHT22;2864;49.220;8.654;2022-08-19T06:21:44;21.20;99.90
5683;DHT22;2864;49.220;8.654;2022-08-19T06:24:13;21.30;99.90
5683;DHT22;2864;49.220;8.654;2022-08-19T06:26:42;21.20;99.90
5683;DHT22;2864;49.220;8.654;2022-08-19T06:29:10;21.20;99.90
5683;DHT22;2864;49.220;8.654;2022-08-19T06:31:40;21.40;99.90
5683;DHT22;2864;49.220;8.654;2022-08-19T06:34:05;21.50;99.90
5683;DHT22;2864;49.220;8.654;2022-08-19T06:36:38;21.60;99.90
5683;DHT22;2864;49.220;8.654;2022-08-19T06:39:11;21.70;99.80
5683;DHT22;2864;49.220;8.654;2022-08-19T06:41:39;21.80;99.30
5683;DHT22;2864;49.220;8.654;2022-08-19T06:44:06;21.70;98.90
5683;DHT22;2864;49.220;8.654;2022-08-19T06:46:32;21.80;98.70
5683;DHT22;2864;49.220;8.654;2022-08-19T06:48:58;22.10;98.70
5683;DHT22;2864;49.220;8.654;2022-08-19T06:51:24;22.00;98.20
5683;DHT22;2864;49.220;8.654;2022-08-19T06:53:52;22.40;98.00
5683;DHT22;2864;49.220;8.654;2022-08-19T06:56:22;24.20;98.80
5683;DHT22;2864;49.220;8.654;2022-08-19T06:58:50;22.70;97.40
5683;DHT22;2864;49.220;8.654;2022-08-19T07:01:18;22.50;97.10
5683;DHT22;2864;49.220;8.654;2022-08-19T07:03:44;23.10;96.90
5683;DHT22;2864;49.220;8.654;2022-08-19T07:06:12;23.20;96.30
5683;DHT22;2864;49.220;8.654;2022-08-19T07:08:40;22.70;96.00
5683;DHT22;2864;49.220;8.654;2022-08-19T07:11:09;22.80;95.60
5683;DHT22;2864;49.220;8.654;2022-08-19T07:13:36;22.90;95.60
5683;DHT22;2864;49.220;8.654;2022-08-19T07:16:04;22.70;95.20
5683;DHT22;2864;49.220;8.654;2022-08-19T07:18:30;22.60;95.30
5683;DHT22;2864;49.220;8.654;2022-08-19T07:21:05;23.00;95.80
5683;DHT22;2864;49.220;8.654;2022-08-19T07:23:31;22.70;95.30
5683;DHT22;2864;49.220;8.654;2022-08-19T07:25:56;22.70;95.20
5683;DHT22;2864;49.220;8.654;2022-08-19T07:28:22;24.40;96.10
5683;DHT22;2864;49.220;8.654;2022-08-19T07:30:48;23.70;95.30
5683;DHT22;2864;49.220;8.654;2022-08-19T07:33:15;22.90;94.70
5683;DHT22;2864;49.220;8.654;2022-08-19T07:35:41;23.00;94.40
5683;DHT22;2864;49.220;8.654;2022-08-19T07:38:07;22.90;94.20
5683;DHT22;2864;49.220;8.654;2022-08-19T07:40:33;22.90;94.50
5683;DHT22;2864;49.220;8.654;2022-08-19T07:42:58;23.10;94.30
5683;DHT22;2864;49.220;8.654;2022-08-19T07:45:24;23.00;94.20
5683;DHT22;2864;49.220;8.654;2022-08-19T07:47:49;25.00;95.30
5683;DHT22;2864;49.220;8.654;2022-08-19T07:50:15;23.20;94.20
5683;DHT22;2864;49.220;8.654;2022-08-19T07:52:41;23.20;94.20
5683;DHT22;2864;49.220;8.654;2022-08-19T07:55:10;23.30;93.90
5683;DHT22;2864;49.220;8.654;2022-08-19T07:57:36;23.30;93.80
5683;DHT22;2864;49.220;8.654;2022-08-19T08:00:04;24.00;93.70
5683;DHT22;2864;49.220;8.654;2022-08-19T08:02:30;23.20;93.70
5683;DHT22;2864;49.220;8.654;2022-08-19T08:04:58;23.10;93.70
5683;DHT22;2864;49.220;8.654;2022-08-19T08:07:54;23.10;93.70
5683;DHT22;2864;49.220;8.654;2022-08-19T08:10:38;23.10;93.80
5683;DHT22;2864;49.220;8.654;2022-08-19T08:13:07;23.20;93.70
5683;DHT22;2864;49.220;8.654;2022-08-19T08:15:33;23.30;93.30
5683;DHT22;2864;49.220;8.654;2022-08-19T08:17:59;23.40;93.30
5683;DHT22;2864;49.220;8.654;2022-08-19T08:20:25;23.60;93.20
5683;DHT22;2864;49.220;8.654;2022-08-19T08:22:53;23.80;93.00
5683;DHT22;2864;49.220;8.654;2022-08-19T08:25:38;24.00;92.60
5683;DHT22;2864;49.220;8.654;2022-08-19T08:28:04;24.10;92.40
5683;DHT22;2864;49.220;8.654;2022-08-19T08:30:32;24.20;92.20
5683;DHT22;2864;49.220;8.654;2022-08-19T08:33:01;24.30;91.60
5683;DHT22;2864;49.220;8.654;2022-08-19T08:35:28;24.40;91.20
5683;DHT22;2864;49.220;8.654;2022-08-19T08:37:54;24.40;91.20
5683;DHT22;2864;49.220;8.654;2022-08-19T08:40:26;24.50;91.30
5683;DHT22;2864;49.220;8.654;2022-08-19T08:43:22;24.60;91.00
5683;DHT22;2864;49.220;8.654;2022-08-19T08:46:00;24.90;90.60
5683;DHT22;2864;49.220;8.654;2022-08-19T08:48:49;24.90;90.10
5683;DHT22;2864;49.220;8.654;2022-08-19T08:51:22;25.10;90.00
5683;DHT22;2864;49.220;8.654;2022-08-19T08:53:52;25.00;88.50
5683;DHT22;2864;49.220;8.654;2022-08-19T08:56:19;24.90;88.70
5683;DHT22;2864;49.220;8.654;2022-08-19T08:59:21;25.00;88.50
5683;DHT22;2864;49.220;8.654;2022-08-19T09:01:49;25.00;87.50
5683;DHT22;2864;49.220;8.654;2022-08-19T09:04:15;25.20;87.10
5683;DHT22;2864;49.220;8.654;2022-08-19T09:09:35;25.10;86.50
5683;DHT22;2864;49.220;8.654;2022-08-19T09:12:10;25.30;85.80
5683;DHT22;2864;49.220;8.654;2022-08-19T09:17:13;26.20;85.50
5683;DHT22;2864;49.220;8.654;2022-08-19T09:19:59;25.60;84.20
5683;DHT22;2864;49.220;8.654;2022-08-19T09:22:36;25.60;84.40
5683;DHT22;2864;49.220;8.654;2022-08-19T09:25:03;25.80;83.20
5683;DHT22;2864;49.220;8.654;2022-08-19T09:27:30;25.60;82.70
5683;DHT22;2864;49.220;8.654;2022-08-19T09:29:57;25.90;82.10
5683;DHT22;2864;49.220;8.654;2022-08-19T09:32:24;26.20;81.70
5683;DHT22;2864;49.220;8.654;2022-08-19T09:34:51;26.40;81.10
5683;DHT22;2864;49.220;8.654;2022-08-19T09:37:20;26.50;80.80
5683;DHT22;2864;49.220;8.654;2022-08-19T09:39:46;26.60;79.30
5683;DHT22;2864;49.220;8.654;2022-08-19T09:42:11;26.40;78.50
5683;DHT22;2864;49.220;8.654;2022-08-19T09:44:42;26.40;79.30
5683;DHT22;2864;49.220;8.654;2022-08-19T09:47:10;26.30;79.10
5683;DHT22;2864;49.220;8.654;2022-08-19T09:49:36;27.30;79.60
5683;DHT22;2864;49.220;8.654;2022-08-19T09:52:03;26.20;77.70
5683;DHT22;2864;49.220;8.654;2022-08-19T09:54:29;26.40;77.20
5683;DHT22;2864;49.220;8.654;2022-08-19T09:56:55;27.10;77.90
5683;DHT22;2864;49.220;8.654;2022-08-19T09:59:23;27.30;76.50
5683;DHT22;2864;49.220;8.654;2022-08-19T10:01:49;27.10;76.70
5683;DHT22;2864;49.220;8.654;2022-08-19T10:04:15;26.30;76.30
5683;DHT22;2864;49.220;8.654;2022-08-19T10:06:40;26.40;76.50
5683;DHT22;2864;49.220;8.654;2022-08-19T10:09:08;27.20;76.90
5683;DHT22;2864;49.220;8.654;2022-08-19T10:11:35;26.30;75.60
5683;DHT22;2864;49.220;8.654;2022-08-19T10:14:03;26.40;75.40
5683;DHT22;2864;49.220;8.654;2022-08-19T10:16:31;26.70;75.30
5683;DHT22;2864;49.220;8.654;2022-08-19T10:18:57;27.20;75.30
5683;DHT22;2864;49.220;8.654;2022-08-19T10:21:29;27.50;73.50
5683;DHT22;2864;49.220;8.654;2022-08-19T10:23:57;27.80;73.10
5683;DHT22;2864;49.220;8.654;2022-08-19T10:26:28;28.00;72.70
5683;DHT22;2864;49.220;8.654;2022-08-19T10:28:55;28.10;72.20
5683;DHT22;2864;49.220;8.654;2022-08-19T10:31:30;27.70;72.50
5683;DHT22;2864;49.220;8.654;2022-08-19T10:33:56;27.20;71.90
5683;DHT22;2864;49.220;8.654;2022-08-19T10:36:30;26.90;72.60
5683;DHT22;2864;49.220;8.654;2022-08-19T10:38:59;26.80;71.50
5683;DHT22;2864;49.220;8.654;2022-08-19T10:41:29;27.00;71.20
5683;DHT22;2864;49.220;8.654;2022-08-19T10:43:57;27.50;70.70
5683;DHT22;2864;49.220;8.654;2022-08-19T10:46:25;27.40;70.40
5683;DHT22;2864;49.220;8.654;2022-08-19T10:48:51;27.60;69.80
5683;DHT22;2864;49.220;8.654;2022-08-19T10:51:17;27.90;70.20
5683;DHT22;2864;49.220;8.654;2022-08-19T10:54:02;28.30;69.30
5683;DHT22;2864;49.220;8.654;2022-08-19T10:56:29;28.30;68.40
5683;DHT22;2864;49.220;8.654;2022-08-19T10:59:13;28.30;68.50
5683;DHT22;2864;49.220;8.654;2022-08-19T11:01:41;28.50;69.50
5683;DHT22;2864;49.220;8.654;2022-08-19T11:04:06;28.70;69.90
5683;DHT22;2864;49.220;8.654;2022-08-19T11:06:35;28.50;69.10
5683;DHT22;2864;49.220;8.654;2022-08-19T11:09:02;28.30;69.60
5683;DHT22;2864;49.220;8.654;2022-08-19T11:11:28;28.50;69.50
5683;DHT22;2864;49.220;8.654;2022-08-19T11:13:54;28.50;68.40
5683;DHT22;2864;49.220;8.654;2022-08-19T11:16:24;28.40;68.70
5683;DHT22;2864;49.220;8.654;2022-08-19T11:18:57;28.70;67.80
5683;DHT22;2864;49.220;8.654;2022-08-19T11:21:30;28.50;68.20
5683;DHT22;2864;49.220;8.654;2022-08-19T11:24:02;28.70;67.90
5683;DHT22;2864;49.220;8.654;2022-08-19T11:26:29;28.80;67.50
5683;DHT22;2864;49.220;8.654;2022-08-19T11:28:57;28.90;66.90
5683;DHT22;2864;49.220;8.654;2022-08-19T11:31:26;29.00;64.80
5683;DHT22;2864;49.220;8.654;2022-08-19T11:33:51;29.00;65.70
5683;DHT22;2864;49.220;8.654;2022-08-19T11:36:20;29.00;66.40
5683;DHT22;2864;49.220;8.654;2022-08-19T11:38:47;28.60;67.00
5683;DHT22;2864;49.220;8.654;2022-08-19T11:41:14;28.60;67.80
5683;DHT22;2864;49.220;8.654;2022-08-19T11:43:40;28.40;68.20
5683;DHT22;2864;49.220;8.654;2022-08-19T11:46:08;28.50;68.50
5683;DHT22;2864;49.220;8.654;2022-08-19T11:48:35;28.90;67.10
5683;DHT22;2864;49.220;8.654;2022-08-19T11:51:05;28.80;67.60
5683;DHT22;2864;49.220;8.654;2022-08-19T11:53:35;28.50;67.60
5683;DHT22;2864;49.220;8.654;2022-08-19T11:56:02;28.00;67.90
5683;DHT22;2864;49.220;8.654;2022-08-19T11:58:28;28.00;68.40
5683;DHT22;2864;49.220;8.654;2022-08-19T12:00:57;28.30;67.40
5683;DHT22;2864;49.220;8.654;2022-08-19T12:03:23;28.60;67.00
5683;DHT22;2864;49.220;8.654;2022-08-19T12:05:49;28.70;65.90
5683;DHT22;2864;49.220;8.654;2022-08-19T12:08:16;29.10;66.40
5683;DHT22;2864;49.220;8.654;2022-08-19T12:10:42;29.20;64.20
5683;DHT22;2864;49.220;8.654;2022-08-19T12:13:13;29.30;64.80
5683;DHT22;2864;49.220;8.654;2022-08-19T12:15:46;28.90;64.80
5683;DHT22;2864;49.220;8.654;2022-08-19T12:18:12;28.80;65.10
5683;DHT22;2864;49.220;8.654;2022-08-19T12:20:40;28.90;64.50
5683;DHT22;2864;49.220;8.654;2022-08-19T12:23:08;28.90;63.80
5683;DHT22;2864;49.220;8.654;2022-08-19T12:25:35;29.20;63.40
5683;DHT22;2864;49.220;8.654;2022-08-19T12:28:00;29.90;62.30
5683;DHT22;2864;49.220;8.654;2022-08-19T12:30:26;29.70;63.30
5683;DHT22;2864;49.220;8.654;2022-08-19T12:32:52;29.10;62.70
5683;DHT22;2864;49.220;8.654;2022-08-19T12:35:18;29.90;61.40
5683;DHT22;2864;49.220;8.654;2022-08-19T12:37:46;29.90;61.40
5683;DHT22;2864;49.220;8.654;2022-08-19T12:40:14;29.80;61.30
5683;DHT22;2864;49.220;8.654;2022-08-19T12:42:40;29.10;59.90
5683;DHT22;2864;49.220;8.654;2022-08-19T12:45:10;29.50;60.20
5683;DHT22;2864;49.220;8.654;2022-08-19T12:47:36;29.50;59.30
5683;DHT22;2864;49.220;8.654;2022-08-19T12:50:02;29.30;58.60
5683;DHT22;2864;49.220;8.654;2022-08-19T12:52:28;28.60;59.00
5683;DHT22;2864;49.220;8.654;2022-08-19T12:54:55;28.70;58.70
5683;DHT22;2864;49.220;8.654;2022-08-19T12:57:23;29.10;58.30
5683;DHT22;2864;49.220;8.654;2022-08-19T12:59:52;29.40;57.90
5683;DHT22;2864;49.220;8.654;2022-08-19T13:02:19;29.70;57.70
5683;DHT22;2864;49.220;8.654;2022-08-19T13:04:45;29.60;58.30
5683;DHT22;2864;49.220;8.654;2022-08-19T13:07:10;29.30;58.30
5683;DHT22;2864;49.220;8.654;2022-08-19T13:09:36;29.40;58.50
5683;DHT22;2864;49.220;8.654;2022-08-19T13:12:03;30.00;58.10
5683;DHT22;2864;49.220;8.654;2022-08-19T13:14:33;30.40;57.10
5683;DHT22;2864;49.220;8.654;2022-08-19T13:16:59;31.10;56.70
5683;DHT22;2864;49.220;8.654;2022-08-19T13:19:24;30.60;56.50
5683;DHT22;2864;49.220;8.654;2022-08-19T13:21:51;31.00;56.20
5683;DHT22;2864;49.220;8.654;2022-08-19T13:24:17;31.80;54.60
5683;DHT22;2864;49.220;8.654;2022-08-19T13:26:42;32.40;54.00
5683;DHT22;2864;49.220;8.654;2022-08-19T13:29:08;32.70;53.80
5683;DHT22;2864;49.220;8.654;2022-08-19T13:31:52;32.50;53.60
5683;DHT22;2864;49.220;8.654;2022-08-19T13:34:36;33.30;53.50
5683;DHT22;2864;49.220;8.654;2022-08-19T13:37:03;32.90;52.80
5683;DHT22;2864;49.220;8.654;2022-08-19T13:39:31;32.10;53.50
5683;DHT22;2864;49.220;8.654;2022-08-19T13:41:57;31.80;54.30
5683;DHT22;2864;49.220;8.654;2022-08-19T13:44:26;31.80;53.20
5683;DHT22;2864;49.220;8.654;2022-08-19T13:46:59;32.10;52.90
5683;DHT22;2864;49.220;8.654;2022-08-19T13:49:27;31.60;53.50
5683;DHT22;2864;49.220;8.654;2022-08-19T13:51:53;31.80;53.60
5683;DHT22;2864;49.220;8.654;2022-08-19T13:54:18;31.90;53.50
5683;DHT22;2864;49.220;8.654;2022-08-19T13:56:44;32.30;52.80
5683;DHT22;2864;49.220;8.654;2022-08-19T13:59:11;31.90;52.40
5683;DHT22;2864;49.220;8.654;2022-08-19T14:01:38;31.80;52.20
5683;DHT22;2864;49.220;8.654;2022-08-19T14:04:04;31.70;52.20
5683;DHT22;2864;49.220;8.654;2022-08-19T14:06:31;32.10;52.70
5683;DHT22;2864;49.220;8.654;2022-08-19T14:08:57;32.90;52.10
5683;DHT22;2864;49.220;8.654;2022-08-19T14:11:22;32.60;51.90
5683;DHT22;2864;49.220;8.654;2022-08-19T14:13:48;32.80;52.00
5683;DHT22;2864;49.220;8.654;2022-08-19T14:16:14;32.90;51.90
5683;DHT22;2864;49.220;8.654;2022-08-19T14:18:41;32.90;52.00
5683;DHT22;2864;49.220;8.654;2022-08-19T14:21:07;32.50;51.90
5683;DHT22;2864;49.220;8.654;2022-08-19T14:23:33;32.70;51.60
5683;DHT22;2864;49.220;8.654;2022-08-19T14:26:11;32.70;51.80
5683;DHT22;2864;49.220;8.654;2022-08-19T14:28:38;33.90;52.60
5683;DHT22;2864;49.220;8.654;2022-08-19T14:31:10;33.30;51.40
5683;DHT22;2864;49.220;8.654;2022-08-19T14:33:36;33.70;51.00
5683;DHT22;2864;49.220;8.654;2022-08-19T14:38:33;33.70;50.80
5683;DHT22;2864;49.220;8.654;2022-08-19T14:41:28;33.40;50.80
5683;DHT22;2864;49.220;8.654;2022-08-19T14:43:56;32.80;51.00
5683;DHT22;2864;49.220;8.654;2022-08-19T14:46:24;32.50;51.30
5683;DHT22;2864;49.220;8.654;2022-08-19T14:48:50;32.00;51.60
5683;DHT22;2864;49.220;8.654;2022-08-19T14:51:16;31.80;51.60
5683;DHT22;2864;49.220;8.654;2022-08-19T14:53:42;31.20;52.40
5683;DHT22;2864;49.220;8.654;2022-08-19T14:56:17;30.90;52.30
5683;DHT22;2864;49.220;8.654;2022-08-19T14:58:50;30.60;52.50
5683;DHT22;2864;49.220;8.654;2022-08-19T15:01:19;30.50;53.20
5683;DHT22;2864;49.220;8.654;2022-08-19T15:03:48;30.70;53.00
5683;DHT22;2864;49.220;8.654;2022-08-19T15:06:16;31.00;52.70
5683;DHT22;2864;49.220;8.654;2022-08-19T15:08:42;31.00;53.20
5683;DHT22;2864;49.220;8.654;2022-08-19T15:11:11;30.60;53.20
5683;DHT22;2864;49.220;8.654;2022-08-19T15:13:37;30.20;53.30
5683;DHT22;2864;49.220;8.654;2022-08-19T15:16:04;30.30;53.70
5683;DHT22;2864;49.220;8.654;2022-08-19T15:18:30;30.00;53.70
5683;DHT22;2864;49.220;8.654;2022-08-19T15:20:55;30.00;53.90
5683;DHT22;2864;49.220;8.654;2022-08-19T15:23:22;30.70;54.30
5683;DHT22;2864;49.220;8.654;2022-08-19T15:25:48;30.10;53.70
5683;DHT22;2864;49.220;8.654;2022-08-19T15:28:17;30.40;54.00
5683;DHT22;2864;49.220;8.654;2022-08-19T15:30:42;29.70;53.70
5683;DHT22;2864;49.220;8.654;2022-08-19T15:33:10;29.60;53.90
5683;DHT22;2864;49.220;8.654;2022-08-19T15:35:35;29.70;53.90
5683;DHT22;2864;49.220;8.654;2022-08-19T15:38:16;29.70;54.20
5683;DHT22;2864;49.220;8.654;2022-08-19T15:40:49;29.70;53.80
5683;DHT22;2864;49.220;8.654;2022-08-19T15:43:23;29.50;54.00
5683;DHT22;2864;49.220;8.654;2022-08-19T15:45:58;29.40;54.00
5683;DHT22;2864;49.220;8.654;2022-08-19T15:48:24;29.50;54.10
5683;DHT22;2864;49.220;8.654;2022-08-19T15:50:49;29.50;54.10
5683;DHT22;2864;49.220;8.654;2022-08-19T15:53:18;29.60;54.00
5683;DHT22;2864;49.220;8.654;2022-08-19T15:55:53;29.50;54.20
5683;DHT22;2864;49.220;8.654;2022-08-19T15:58:18;29.60;54.00
5683;DHT22;2864;49.220;8.654;2022-08-19T16:01:06;29.80;54.00
5683;DHT22;2864;49.220;8.654;2022-08-19T16:03:52;29.70;53.90
5683;DHT22;2864;49.220;8.654;2022-08-19T16:06:38;29.80;54.00
5683;DHT22;2864;49.220;8.654;2022-08-19T16:09:03;30.10;54.20
5683;DHT22;2864;49.220;8.654;2022-08-19T16:11:32;29.70;54.00
5683;DHT22;2864;49.220;8.654;2022-08-19T16:13:59;29.50;54.10
5683;DHT22;2864;49.220;8.654;2022-08-19T16:16:32;30.00;54.50
5683;DHT22;2864;49.220;8.654;2022-08-19T16:19:00;29.70;54.20